Accueil
METAR-TAF:

METAR-TAF

Aéroports :

Makkovik, Terre-Neuve-et-Labrador, Canada

latitude: 55-05N, longitude: 059-11W, altitude: 71 m

Observation

Le bulletin a été fait il y a 1 heure et 57 minutes, à 20:00 UTC
Vent 15 kt de ouest avec des rafales jusqu'à 23 kt
Température -3°C
Humidité 68%
Pression 1006 hPa
Visibilité: 24.1 km
Quelques nuages à une hauteur de 2400 ft
Quelques nuages à une hauteur de 10000 ft
Nuages épars à une hauteur de 22000 ft

METAR: CYFT 192000Z 27015G23KT 15SM FEW024 FEW100 SCT220 M03/M08 A2972 RMK CU1AC1CI2 LAST OBS/NEXT 200900 UTC SLP071

Heure: 18:57 (21:57 UTC)


TAF: absent

Observations et prévisions météorologiques de plus de 4000 aéroports (messages METAR et TAF).

Les stations disponibles sont représentées par des disques jaunes et rouges sur la carte.

Passer la souris dessus pour voir le nom de la station.

Cliquer dessus pour voir les observations et prévisions météorologiques.

Pour changer de carte: cliquez sur les boutons verts avec une croix noire pour zoomer, sur le bouton vert avec un tiret pour effectuer un zoom arrière, ou sur les flèches vertes pour les cartes adjacentes.


METAR-TAF: